Time;durP1;ratioP1;P1;durP2;ratioP2;P2;SDS_P1;SDS_P2;PMS_P1;PMS_P2;Temp;Humidity;BMP_temperature;BMP_pressure;BME280_temperature;BME280_humidity;BME280_pressure;Samples;Min_cycle;Max_cycle;Signal;HPM_P1;HPM_P2
2023/01/30 00:00:59;;;;;;;11.07;4.33;;;;;;;3.33;100.00;-23909.13;5015921;28;20387;-74
2023/01/30 00:03:25;;;;;;;10.80;4.43;;;;;;;2.83;100.00;-23895.00;5014526;28;20677;-75
2023/01/30 00:05:51;;;;;;;6.33;3.23;;;;;;;2.86;100.00;-23896.00;5016068;28;20176;-75
2023/01/30 00:08:17;;;;;;;8.40;3.27;;;;;;;3.19;100.00;-23905.13;5015852;28;20654;-74
2023/01/30 00:10:43;;;;;;;6.03;3.40;;;;;;;3.25;100.00;-23906.84;5015590;28;20176;-74
2023/01/30 00:13:10;;;;;;;4.57;3.40;;;;;;;2.84;100.00;-23895.44;5015595;28;20276;-77
2023/01/30 00:15:36;;;;;;;6.23;3.83;;;;;;;3.29;100.00;-23908.13;5015787;28;20184;-76
2023/01/30 00:18:02;;;;;;;11.73;3.70;;;;;;;3.24;100.00;-23906.72;5015570;28;20279;-75
2023/01/30 00:20:27;;;;;;;12.90;4.67;;;;;;;3.32;100.00;-23909.00;5015188;28;20279;-76
2023/01/30 00:22:52;;;;;;;9.40;4.33;;;;;;;3.36;100.00;-23910.13;5014204;28;20184;-76
2023/01/30 00:25:18;;;;;;;5.47;3.50;;;;;;;3.01;100.00;-23900.16;5036814;28;20228;-74
2023/01/30 00:27:43;;;;;;;7.37;4.30;;;;;;;3.51;100.00;-23914.25;5036182;28;20176;-77
2023/01/30 00:30:09;;;;;;;9.00;4.33;;;;;;;3.30;100.00;-23908.41;5038177;28;20176;-73
2023/01/30 00:32:35;;;;;;;7.90;3.67;;;;;;;2.96;100.00;-23898.88;5021941;28;20177;-76
2023/01/30 00:35:00;;;;;;;7.50;3.67;;;;;;;3.04;100.00;-23901.00;5016047;28;20180;-77
2023/01/30 00:37:25;;;;;;;8.73;4.33;;;;;;;3.22;100.00;-23906.00;5015903;28;20286;-74
2023/01/30 00:39:51;;;;;;;8.10;4.37;;;;;;;3.26;100.00;-23907.13;5016149;28;20303;-75
2023/01/30 00:47:44;;;;;;;7.00;4.00;;;;;;;3.24;100.00;-23906.56;5015236;28;20187;-77
2023/01/30 00:50:10;;;;;;;10.33;5.17;;;;;;;3.24;100.00;-23906.72;5015575;28;20172;-75
2023/01/30 00:52:35;;;;;;;6.57;3.93;;;;;;;3.41;100.00;-23911.41;5014920;28;20176;-76
2023/01/30 00:55:01;;;;;;;14.17;4.03;;;;;;;2.95;100.00;-23898.44;5014372;28;20175;-76
2023/01/30 00:57:26;;;;;;;6.73;3.90;;;;;;;3.39;100.00;-23910.84;5014795;28;20705;-74
2023/01/30 00:59:52;;;;;;;7.90;3.87;;;;;;;3.16;100.00;-23904.28;5015380;28;20261;-75
2023/01/30 01:02:17;;;;;;;9.37;5.30;;;;;;;3.04;100.00;-23901.00;5014813;28;20172;-76
2023/01/30 01:04:43;;;;;;;9.50;5.00;;;;;;;2.85;100.00;-23895.59;5014669;28;20172;-75
2023/01/30 01:07:12;;;;;;;7.57;4.47;;;;;;;2.92;100.00;-23897.72;5014171;28;20258;-76
2023/01/30 01:09:38;;;;;;;9.07;4.83;;;;;;;2.94;100.00;-23898.16;5014800;28;20179;-77
2023/01/30 01:12:03;;;;;;;7.10;3.90;;;;;;;3.14;100.00;-23903.72;5012743;28;20775;-76
2023/01/30 01:14:29;;;;;;;8.07;4.27;;;;;;;2.94;100.00;-23898.16;5014905;28;20172;-77
2023/01/30 01:16:55;;;;;;;6.87;3.13;;;;;;;3.00;100.00;-23900.00;5014716;28;20208;-74
2023/01/30 01:19:20;;;;;;;6.43;4.00;;;;;;;3.12;100.00;-23903.28;5014322;28;20235;-75
2023/01/30 01:21:46;;;;;;;5.63;3.23;;;;;;;2.80;100.00;-23894.16;5013988;28;20179;-74
2023/01/30 01:24:13;;;;;;;5.23;3.40;;;;;;;3.05;100.00;-23901.44;5013890;28;20246;-75
2023/01/30 01:26:39;;;;;;;9.13;4.13;;;;;;;2.70;100.00;-23891.31;5013756;28;20204;-78
2023/01/30 01:29:04;;;;;;;5.30;3.37;;;;;;;2.74;100.00;-23892.44;5014328;28;20204;-75
2023/01/30 01:31:30;;;;;;;6.17;3.70;;;;;;;2.99;100.00;-23899.56;5014196;28;20180;-75
2023/01/30 01:33:56;;;;;;;5.77;2.90;;;;;;;2.72;100.00;-23892.03;5014173;28;20246;-77
2023/01/30 01:36:22;;;;;;;7.30;4.07;;;;;;;2.87;100.00;-23896.16;5014397;28;20590;-76
2023/01/30 01:38:47;;;;;;;4.23;2.90;;;;;;;3.02;100.00;-23900.44;5014464;28;20183;-76
2023/01/30 01:41:15;;;;;;;7.00;4.27;;;;;;;2.92;100.00;-23897.56;5013855;28;20215;-76
2023/01/30 01:44:03;;;;;;;3.77;3.33;;;;;;;2.98;100.00;-23899.28;5014346;28;20179;-79
2023/01/30 01:46:41;;;;;;;7.03;3.43;;;;;;;2.56;100.00;-23887.44;5014209;28;20183;-74
2023/01/30 01:49:29;;;;;;;3.73;2.77;;;;;;;2.89;100.00;-23896.72;5014407;28;20267;-75
2023/01/30 01:52:02;;;;;;;3.93;3.10;;;;;;;2.89;100.00;-23896.88;4995509;28;20564;-75
2023/01/30 01:54:42;;;;;;;9.37;3.60;;;;;;;2.35;100.00;-23881.59;5033429;28;20172;-75
2023/01/30 01:57:32;;;;;;;10.47;3.73;;;;;;;2.61;100.00;-23889.03;5033525;28;20289;-74
2023/01/30 02:00:05;;;;;;;11.43;3.60;;;;;;;2.88;100.00;-23896.44;5032362;28;20680;-73
2023/01/30 02:02:33;;;;;;;4.67;3.03;;;;;;;2.61;100.00;-23888.88;5033427;28;20179;-76
2023/01/30 02:05:02;;;;;;;6.07;2.50;;;;;;;3.03;100.00;-23900.72;5033371;28;20716;-75
2023/01/30 02:07:59;;;;;;;5.73;3.83;;;;;;;3.18;100.00;-23905.00;5032344;28;20155;-76
2023/01/30 02:10:45;;;;;;;5.87;3.07;;;;;;;2.83;100.00;-23895.00;5031008;28;20217;-74
2023/01/30 02:13:11;;;;;;;12.07;4.07;;;;;;;3.07;100.00;-23901.84;5032464;28;20261;-74
2023/01/30 02:15:36;;;;;;;7.50;3.50;;;;;;;2.90;100.00;-23897.16;5033063;28;20207;-76
2023/01/30 02:18:02;;;;;;;11.17;3.40;;;;;;;3.00;100.00;-23900.00;5032177;28;20210;-77
2023/01/30 02:20:53;;;;;;;6.23;3.53;;;;;;;3.08;100.00;-23902.28;5033629;28;20168;-74
2023/01/30 02:23:21;;;;;;;4.90;3.17;;;;;;;3.18;100.00;-23904.84;5033348;28;20176;-75
2023/01/30 02:25:49;;;;;;;4.17;3.23;;;;;;;3.19;100.00;-23905.28;5033187;28;20206;-76
2023/01/30 02:28:27;;;;;;;5.27;3.10;;;;;;;3.19;100.00;-23905.28;5033564;28;20267;-74
2023/01/30 02:31:22;;;;;;;5.13;3.27;;;;;;;3.16;100.00;-23904.44;5033467;28;20179;-74
2023/01/30 02:34:35;;;;;;;4.83;3.70;;;;;;;3.14;100.00;-23903.72;5013992;28;20198;-75
2023/01/30 02:37:23;;;;;;;5.00;3.23;;;;;;;3.11;100.00;-23903.00;5016637;28;20215;-75
2023/01/30 02:40:33;;;;;;;8.23;3.00;;;;;;;3.18;100.00;-23905.00;5033100;28;20579;-74
2023/01/30 02:43:33;;;;;;;5.47;3.07;;;;;;;2.87;100.00;-23896.28;5031084;28;20610;-75
2023/01/30 02:46:14;;;;;;;9.03;3.50;;;;;;;3.02;100.00;-23900.44;5032601;28;20175;-75
2023/01/30 02:48:52;;;;;;;6.33;3.03;;;;;;;2.98;100.00;-23899.44;5032815;28;20548;-76
2023/01/30 02:51:37;;;;;;;5.27;2.97;;;;;;;2.62;100.00;-23889.31;5031676;28;20606;-74
2023/01/30 02:54:09;;;;;;;7.43;4.23;;;;;;;2.50;100.00;-23885.88;5032829;28;20198;-76
2023/01/30 02:56:51;;;;;;;4.33;2.60;;;;;;;2.66;100.00;-23890.31;5033003;28;20209;-75
2023/01/30 02:59:21;;;;;;;5.67;3.53;;;;;;;2.62;100.00;-23889.31;5032688;28;20174;-74
2023/01/30 03:02:17;;;;;;;4.80;3.00;;;;;;;2.79;100.00;-23893.88;5032756;28;20167;-76
2023/01/30 03:04:54;;;;;;;8.97;2.77;;;;;;;2.87;100.00;-23896.28;5032549;28;20183;-76
2023/01/30 03:07:38;;;;;;;7.57;4.33;;;;;;;2.93;100.00;-23897.88;5032899;28;20170;-76
2023/01/30 03:10:16;;;;;;;5.80;3.27;;;;;;;2.68;100.00;-23890.88;5032473;28;20174;-76
2023/01/30 03:12:41;;;;;;;6.47;3.67;;;;;;;2.79;100.00;-23893.88;5032123;28;20219;-75
2023/01/30 03:15:16;;;;;;;3.40;2.73;;;;;;;2.90;100.00;-23897.00;5031875;28;20171;-74
2023/01/30 03:17:45;;;;;;;7.23;2.97;;;;;;;2.37;100.00;-23882.16;5032597;28;20225;-74
2023/01/30 03:20:13;;;;;;;7.47;2.90;;;;;;;2.50;100.00;-23885.88;5032288;28;20175;-75
2023/01/30 03:22:38;;;;;;;4.20;2.77;;;;;;;2.49;100.00;-23885.59;5032373;28;20175;-75
2023/01/30 03:25:04;;;;;;;4.57;3.23;;;;;;;2.51;100.00;-23886.16;5034596;28;20190;-77
2023/01/30 03:27:30;;;;;;;9.93;3.27;;;;;;;2.79;100.00;-23894.00;5027109;28;20713;-74
2023/01/30 03:29:55;;;;;;;5.10;2.83;;;;;;;2.49;100.00;-23885.59;5025202;28;20183;-76
2023/01/30 03:32:20;;;;;;;9.17;3.07;;;;;;;2.63;100.00;-23889.59;5016335;28;20303;-76
2023/01/30 03:34:46;;;;;;;7.87;3.80;;;;;;;2.80;100.00;-23894.16;5016753;28;20172;-74
2023/01/30 03:37:11;;;;;;;6.83;3.27;;;;;;;2.38;100.00;-23882.44;5016175;28;20561;-75
2023/01/30 03:39:37;;;;;;;3.97;2.77;;;;;;;2.55;100.00;-23887.16;5016453;28;20177;-75
2023/01/30 03:42:02;;;;;;;5.80;3.27;;;;;;;2.68;100.00;-23891.00;5016257;28;20618;-76
2023/01/30 03:44:28;;;;;;;3.93;2.80;;;;;;;2.64;100.00;-23889.88;5016594;28;20168;-74
2023/01/30 03:46:53;;;;;;;4.27;3.03;;;;;;;2.45;100.00;-23884.31;5016229;28;20180;-75
2023/01/30 03:49:19;;;;;;;7.57;3.30;;;;;;;2.86;100.00;-23896.00;5017351;28;20259;-73
2023/01/30 03:51:44;;;;;;;11.07;3.90;;;;;;;2.79;100.00;-23893.88;5028755;28;20176;-73
2023/01/30 03:54:10;;;;;;;5.77;3.67;;;;;;;2.35;100.00;-23881.47;5020878;28;20247;-75
2023/01/30 03:56:35;;;;;;;7.67;4.00;;;;;;;2.62;100.00;-23889.16;5015952;28;20283;-76
2023/01/30 03:59:01;;;;;;;3.17;2.47;;;;;;;2.83;100.00;-23895.00;5016190;28;20183;-75
2023/01/30 04:01:26;;;;;;;6.30;3.83;;;;;;;2.45;100.00;-23884.31;5016065;28;20230;-74
2023/01/30 04:03:51;;;;;;;6.43;3.13;;;;;;;2.76;100.00;-23893.00;5016181;28;20555;-76
2023/01/30 04:06:17;;;;;;;5.30;2.97;;;;;;;2.40;100.00;-23882.88;5015890;28;20222;-76
2023/01/30 04:08:42;;;;;;;7.00;2.80;;;;;;;2.57;100.00;-23887.72;5014879;28;20226;-77
2023/01/30 04:11:07;;;;;;;10.00;3.97;;;;;;;2.29;100.00;-23879.88;5015683;28;20226;-75
2023/01/30 04:13:33;;;;;;;3.63;2.27;;;;;;;2.49;100.00;-23885.44;5016001;28;20227;-77
2023/01/30 04:16:21;;;;;;;5.00;3.30;;;;;;;2.16;100.00;-23876.31;5014768;28;20179;-74
2023/01/30 04:18:47;;;;;;;5.97;2.87;;;;;;;2.39;100.00;-23882.59;5016133;28;20172;-75
2023/01/30 04:21:13;;;;;;;5.23;2.80;;;;;;;2.62;100.00;-23889.16;5016009;28;20176;-74
2023/01/30 04:23:39;;;;;;;4.77;3.10;;;;;;;2.55;100.00;-23887.16;5016063;28;20625;-76
2023/01/30 04:26:04;;;;;;;7.43;3.37;;;;;;;2.55;100.00;-23887.31;5015666;28;20655;-75
2023/01/30 04:28:30;;;;;;;4.53;3.07;;;;;;;2.40;100.00;-23883.03;5015686;28;20663;-75
2023/01/30 04:30:55;;;;;;;4.37;3.17;;;;;;;2.64;100.00;-23889.72;5015649;28;20211;-76
2023/01/30 04:33:21;;;;;;;10.17;3.47;;;;;;;2.70;100.00;-23891.31;5015574;28;20175;-76
2023/01/30 04:35:53;;;;;;;4.50;3.20;;;;;;;2.39;100.00;-23882.75;5015041;28;20240;-76
2023/01/30 04:38:20;;;;;;;7.50;4.47;;;;;;;2.51;100.00;-23886.16;5015182;28;20211;-75
2023/01/30 04:40:49;;;;;;;8.47;3.70;;;;;;;2.71;100.00;-23891.59;5015919;28;20180;-76
2023/01/30 04:43:15;;;;;;;10.57;3.03;;;;;;;2.25;100.00;-23878.59;5015420;28;20183;-75
2023/01/30 04:45:45;;;;;;;9.23;4.07;;;;;;;2.13;100.00;-23875.31;5015730;28;20184;-76
2023/01/30 04:48:11;;;;;;;5.17;2.90;;;;;;;2.25;100.00;-23878.75;5015476;28;20631;-75
2023/01/30 04:50:37;;;;;;;4.50;3.13;;;;;;;2.63;100.00;-23889.59;5015082;28;20176;-75
2023/01/30 04:53:02;;;;;;;6.57;3.47;;;;;;;2.77;100.00;-23893.31;5014360;28;20230;-77
2023/01/30 04:55:28;;;;;;;4.87;3.50;;;;;;;2.50;100.00;-23885.88;5015313;28;20204;-75
2023/01/30 04:57:54;;;;;;;5.27;2.77;;;;;;;2.52;100.00;-23886.44;5014463;28;20203;-77
2023/01/30 05:00:19;;;;;;;6.03;3.40;;;;;;;2.33;100.00;-23880.88;5013439;28;20266;-77
2023/01/30 05:02:45;;;;;;;3.97;3.17;;;;;;;2.62;100.00;-23889.31;5013356;28;20184;-74
2023/01/30 05:05:10;;;;;;;4.83;3.40;;;;;;;2.33;100.00;-23881.03;5014902;28;20176;-74
2023/01/30 05:07:36;;;;;;;9.70;2.93;;;;;;;2.15;100.00;-23876.03;5013003;28;20195;-74
2023/01/30 05:10:04;;;;;;;7.13;3.27;;;;;;;2.53;100.00;-23886.75;5026067;28;20250;-75
2023/01/30 05:12:29;;;;;;;6.37;3.07;;;;;;;2.15;100.00;-23876.03;5020071;28;20247;-75
2023/01/30 05:14:55;;;;;;;7.27;4.27;;;;;;;2.58;100.00;-23888.03;5015730;28;20211;-74
2023/01/30 05:17:21;;;;;;;5.97;3.37;;;;;;;2.00;100.00;-23871.59;5008969;28;20216;-75
2023/01/30 05:19:46;;;;;;;5.40;3.23;;;;;;;2.34;100.00;-23881.16;5012021;28;20720;-75
2023/01/30 05:22:12;;;;;;;7.70;2.93;;;;;;;2.45;100.00;-23884.31;5017994;28;20199;-75
2023/01/30 05:24:37;;;;;;;4.23;2.97;;;;;;;2.23;100.00;-23878.31;5012788;28;20256;-77
2023/01/30 05:27:03;;;;;;;6.10;3.23;;;;;;;2.54;100.00;-23886.88;5013372;28;20242;-75
2023/01/30 05:29:28;;;;;;;5.23;3.33;;;;;;;2.26;100.00;-23879.03;5020488;28;20172;-76
2023/01/30 05:31:54;;;;;;;4.83;3.03;;;;;;;2.23;100.00;-23878.16;5012539;28;20698;-75
2023/01/30 05:34:19;;;;;;;15.73;4.00;;;;;;;2.06;100.00;-23873.47;5012215;28;20183;-75
2023/01/30 05:36:46;;;;;;;5.17;3.20;;;;;;;2.39;100.00;-23882.59;5011820;28;20200;-75
2023/01/30 05:39:12;;;;;;;8.90;3.77;;;;;;;2.15;100.00;-23875.88;5012661;28;20184;-74
2023/01/30 05:41:37;;;;;;;4.93;2.97;;;;;;;2.71;100.00;-23891.72;5012041;28;20652;-74
2023/01/30 05:44:03;;;;;;;6.50;3.60;;;;;;;2.43;100.00;-23883.88;5012453;28;20639;-74
2023/01/30 05:46:28;;;;;;;11.37;3.63;;;;;;;2.59;100.00;-23888.31;5010216;28;20184;-75
2023/01/30 05:48:54;;;;;;;7.03;2.90;;;;;;;2.21;100.00;-23877.75;5011833;28;20179;-76
2023/01/30 05:51:22;;;;;;;5.13;2.87;;;;;;;2.47;100.00;-23885.03;5012282;28;20234;-76
2023/01/30 05:53:48;;;;;;;4.77;3.23;;;;;;;2.58;100.00;-23888.16;5011613;28;20279;-76
2023/01/30 05:56:14;;;;;;;5.10;3.07;;;;;;;2.44;100.00;-23884.16;5012316;28;20214;-77
2023/01/30 05:58:40;;;;;;;4.33;2.57;;;;;;;2.26;100.00;-23878.88;5011631;28;20211;-78
2023/01/30 06:01:09;;;;;;;12.93;3.70;;;;;;;2.52;100.00;-23886.44;5022362;28;20555;-77
2023/01/30 06:03:34;;;;;;;6.37;3.70;;;;;;;2.11;100.00;-23874.75;5011699;28;20191;-74
2023/01/30 06:06:01;;;;;;;3.43;2.60;;;;;;;2.00;100.00;-23871.59;5020120;28;20188;-75
2023/01/30 06:08:27;;;;;;;8.77;3.50;;;;;;;2.49;100.00;-23885.59;5021491;28;20191;-77
2023/01/30 06:10:52;;;;;;;6.20;2.73;;;;;;;2.23;100.00;-23878.16;5012887;28;20274;-76
2023/01/30 06:13:17;;;;;;;8.90;3.00;;;;;;;2.10;100.00;-23874.47;5012192;28;20354;-75
2023/01/30 06:15:44;;;;;;;5.73;3.87;;;;;;;2.40;100.00;-23883.03;5019690;28;20191;-74
2023/01/30 06:18:09;;;;;;;4.73;2.33;;;;;;;2.21;100.00;-23877.75;5021986;28;20195;-76
2023/01/30 06:20:35;;;;;;;5.00;3.13;;;;;;;2.10;100.00;-23874.47;5019387;28;20190;-74
2023/01/30 06:23:00;;;;;;;3.70;2.63;;;;;;;2.44;100.00;-23884.16;5010826;28;20238;-74
2023/01/30 06:25:26;;;;;;;5.83;3.50;;;;;;;2.51;100.00;-23886.16;5020821;28;20210;-75
2023/01/30 06:27:51;;;;;;;7.30;3.63;;;;;;;2.56;100.00;-23887.59;5011621;28;20191;-75
2023/01/30 06:30:17;;;;;;;2.90;2.60;;;;;;;2.32;100.00;-23880.75;5018662;28;20191;-77
2023/01/30 06:32:42;;;;;;;8.10;3.93;;;;;;;2.63;100.00;-23889.44;5013018;28;20199;-74
2023/01/30 06:35:08;;;;;;;3.80;2.63;;;;;;;2.66;100.00;-23890.44;5011298;28;20582;-75
2023/01/30 06:37:34;;;;;;;5.27;2.50;;;;;;;2.57;100.00;-23887.88;5011622;28;20726;-73
2023/01/30 06:39:59;;;;;;;4.50;3.03;;;;;;;2.39;100.00;-23882.75;5012208;28;20207;-76
2023/01/30 06:42:24;;;;;;;4.30;2.70;;;;;;;2.59;100.00;-23888.44;5012080;28;20180;-72
2023/01/30 06:44:50;;;;;;;4.77;2.67;;;;;;;2.46;100.00;-23884.75;5010943;28;20204;-73
2023/01/30 06:47:15;;;;;;;4.43;3.27;;;;;;;2.80;100.00;-23894.31;5012204;28;20203;-74
2023/01/30 06:49:40;;;;;;;3.93;2.87;;;;;;;2.74;100.00;-23892.59;5011663;28;20199;-73
2023/01/30 06:52:06;;;;;;;5.53;2.50;;;;;;;2.91;100.00;-23897.44;5010810;28;20172;-76
2023/01/30 06:54:31;;;;;;;4.63;2.83;;;;;;;2.41;100.00;-23883.16;5012123;28;20191;-74
2023/01/30 06:56:56;;;;;;;4.63;2.80;;;;;;;2.73;100.00;-23892.16;5011941;28;20275;-74
2023/01/30 06:59:22;;;;;;;5.90;2.73;;;;;;;2.80;100.00;-23894.16;5011892;28;20628;-75
2023/01/30 07:01:47;;;;;;;5.23;2.77;;;;;;;2.44;100.00;-23884.16;5012022;28;20234;-74
2023/01/30 07:04:13;;;;;;;4.10;3.03;;;;;;;2.74;100.00;-23892.44;5011274;28;20187;-74
2023/01/30 07:06:38;;;;;;;7.47;3.57;;;;;;;2.89;100.00;-23896.72;5011256;28;20166;-73
2023/01/30 07:09:03;;;;;;;6.03;3.10;;;;;;;2.31;100.00;-23880.31;5012082;28;20214;-74
2023/01/30 07:11:30;;;;;;;3.43;3.13;;;;;;;2.77;100.00;-23893.31;5011511;28;20607;-73
2023/01/30 07:13:55;;;;;;;6.63;2.73;;;;;;;2.53;100.00;-23886.59;5011263;28;20263;-75
2023/01/30 07:16:27;;;;;;;5.40;3.30;;;;;;;2.45;100.00;-23884.44;5012015;28;20180;-73
2023/01/30 07:18:52;;;;;;;6.67;2.77;;;;;;;2.39;100.00;-23882.75;5011177;28;20167;-73
2023/01/30 07:21:18;;;;;;;4.00;2.43;;;;;;;2.46;100.00;-23884.59;5011742;28;20640;-75
2023/01/30 07:23:45;;;;;;;7.30;2.77;;;;;;;2.61;100.00;-23889.03;5012085;28;20180;-75
2023/01/30 07:26:11;;;;;;;11.43;3.97;;;;;;;2.89;100.00;-23896.72;5011586;28;20187;-75
2023/01/30 07:28:36;;;;;;;11.23;3.70;;;;;;;2.90;100.00;-23897.00;5011901;28;20172;-73
2023/01/30 07:31:02;;;;;;;6.00;3.07;;;;;;;2.84;100.00;-23895.28;5011479;28;20230;-74
2023/01/30 07:33:27;;;;;;;5.10;3.43;;;;;;;2.91;100.00;-23897.28;5011295;28;20179;-71
2023/01/30 07:35:54;;;;;;;4.37;2.53;;;;;;;2.82;100.00;-23894.88;5011559;28;20322;-72
2023/01/30 07:38:19;;;;;;;4.63;2.97;;;;;;;2.81;100.00;-23894.44;5011507;28;20234;-74
2023/01/30 07:40:45;;;;;;;7.20;3.97;;;;;;;3.10;100.00;-23902.72;5011960;28;20168;-73
2023/01/30 07:43:13;;;;;;;12.87;4.33;;;;;;;3.15;100.00;-23904.00;5011637;28;20168;-75
2023/01/30 07:45:41;;;;;;;5.73;2.97;;;;;;;3.14;100.00;-23903.84;5011608;28;20164;-73
2023/01/30 07:48:10;;;;;;;12.90;3.30;;;;;;;3.09;100.00;-23902.44;5016292;28;20519;-72
2023/01/30 07:50:35;;;;;;;3.50;2.80;;;;;;;2.93;100.00;-23897.88;5026116;28;20175;-73
2023/01/30 07:53:05;;;;;;;6.27;3.10;;;;;;;2.89;100.00;-23896.88;5031822;28;20164;-73
2023/01/30 07:55:31;;;;;;;5.30;3.17;;;;;;;3.23;100.00;-23906.44;5030426;28;20238;-74
2023/01/30 07:57:57;;;;;;;9.43;2.90;;;;;;;2.84;100.00;-23895.44;5011280;28;20245;-72
2023/01/30 08:00:22;;;;;;;5.97;3.20;;;;;;;3.23;100.00;-23906.28;5011730;28;20587;-74
2023/01/30 08:02:48;;;;;;;6.27;4.07;;;;;;;3.01;100.00;-23900.16;5010952;28;20180;-74
2023/01/30 08:05:13;;;;;;;7.07;3.53;;;;;;;3.05;100.00;-23901.44;5018935;28;20184;-72
2023/01/30 08:07:39;;;;;;;5.67;2.83;;;;;;;3.32;100.00;-23908.84;5009251;28;20614;-72
2023/01/30 08:10:05;;;;;;;5.13;3.47;;;;;;;3.01;100.00;-23900.16;5011676;28;20237;-74
2023/01/30 08:12:30;;;;;;;6.37;3.70;;;;;;;3.49;100.00;-23913.69;5014295;28;20219;-73
2023/01/30 08:14:56;;;;;;;5.07;3.27;;;;;;;3.43;100.00;-23912.13;5014582;28;20663;-73
2023/01/30 08:17:21;;;;;;;4.07;3.00;;;;;;;3.69;100.00;-23919.41;5014347;28;20245;-72
2023/01/30 08:19:47;;;;;;;5.93;3.20;;;;;;;3.55;100.00;-23915.53;5013665;28;20215;-72
2023/01/30 08:22:12;;;;;;;5.07;2.60;;;;;;;3.16;100.00;-23904.28;5014498;28;20586;-72
2023/01/30 08:24:38;;;;;;;10.30;4.83;;;;;;;3.38;100.00;-23910.69;5014289;28;20176;-72
2023/01/30 08:27:03;;;;;;;3.93;3.53;;;;;;;3.47;100.00;-23913.25;5013990;28;20175;-72
2023/01/30 08:29:29;;;;;;;6.17;3.00;;;;;;;3.46;100.00;-23912.97;5014108;28;20200;-73
2023/01/30 08:31:58;;;;;;;10.90;3.87;;;;;;;3.36;100.00;-23910.00;5014871;28;20255;-72
2023/01/30 08:34:24;;;;;;;5.70;3.57;;;;;;;3.83;100.00;-23923.38;5013169;28;20199;-71
2023/01/30 08:36:49;;;;;;;4.13;3.57;;;;;;;3.31;100.00;-23908.72;5021538;28;20271;-75
2023/01/30 08:39:15;;;;;;;7.23;2.47;;;;;;;3.32;100.00;-23908.84;5014332;28;20326;-75
2023/01/30 08:41:43;;;;;;;2.93;2.27;;;;;;;3.62;100.00;-23917.41;5014871;28;20215;-71
2023/01/30 08:44:09;;;;;;;4.53;2.83;;;;;;;3.28;100.00;-23907.72;5014673;28;20184;-75
2023/01/30 08:46:35;;;;;;;4.70;3.17;;;;;;;3.10;100.00;-23902.72;5014429;28;20667;-77
2023/01/30 08:49:00;;;;;;;4.60;3.40;;;;;;;3.19;100.00;-23905.28;5014220;28;20176;-71
2023/01/30 08:51:26;;;;;;;8.00;3.70;;;;;;;3.37;100.00;-23910.41;5013651;28;20179;-73
2023/01/30 08:53:51;;;;;;;5.37;3.20;;;;;;;3.94;100.00;-23926.53;5014713;28;20168;-74
2023/01/30 08:56:17;;;;;;;4.20;2.80;;;;;;;3.56;100.00;-23915.81;5014443;28;20695;-74
2023/01/30 08:58:44;;;;;;;3.77;3.03;;;;;;;3.85;100.00;-23923.94;5014188;28;20207;-71
2023/01/30 09:01:10;;;;;;;4.27;2.40;;;;;;;3.81;100.00;-23922.66;5014262;28;20607;-74
2023/01/30 09:03:35;;;;;;;6.67;3.17;;;;;;;3.86;100.00;-23924.09;5014436;28;20180;-73
2023/01/30 09:06:00;;;;;;;5.33;3.33;;;;;;;3.49;100.00;-23913.84;5014176;28;20333;-71
2023/01/30 09:08:26;;;;;;;8.53;4.00;;;;;;;3.63;100.00;-23917.53;5014301;28;20184;-74
2023/01/30 09:10:51;;;;;;;7.77;3.87;;;;;;;3.58;100.00;-23916.13;5014064;28;20651;-75
2023/01/30 09:13:17;;;;;;;7.33;3.77;;;;;;;3.75;100.00;-23921.09;5016937;28;20312;-75
2023/01/30 09:15:43;;;;;;;4.63;2.50;;;;;;;3.73;100.00;-23920.53;5019196;28;20183;-74
2023/01/30 09:18:08;;;;;;;6.80;3.57;;;;;;;4.06;100.00;-23929.78;5012460;28;20284;-75
2023/01/30 09:20:34;;;;;;;7.80;3.57;;;;;;;4.15;100.00;-23932.34;5013596;28;20259;-72
2023/01/30 09:23:00;;;;;;;9.60;3.73;;;;;;;4.14;100.00;-23931.94;5013783;28;20536;-74
2023/01/30 09:25:26;;;;;;;6.03;3.20;;;;;;;3.99;100.00;-23927.94;5013935;28;20270;-71
2023/01/30 09:27:51;;;;;;;6.97;3.50;;;;;;;4.04;100.00;-23929.22;5013413;28;20174;-75
2023/01/30 09:30:17;;;;;;;6.60;3.40;;;;;;;4.35;100.00;-23937.91;5012120;28;20180;-75
2023/01/30 09:32:43;;;;;;;6.73;3.57;;;;;;;4.31;100.00;-23936.91;5013827;28;20280;-76
2023/01/30 09:35:08;;;;;;;6.80;3.47;;;;;;;4.42;100.00;-23940.03;5013350;28;20233;-73
2023/01/30 09:37:34;;;;;;;5.63;3.33;;;;;;;4.46;100.00;-23941.03;5013389;28;20227;-72
2023/01/30 09:39:59;;;;;;;4.60;2.90;;;;;;;3.70;100.00;-23919.69;5013454;28;20172;-75
2023/01/30 09:42:36;;;;;;;7.40;2.73;;;;;;;4.28;100.00;-23936.06;5014075;28;20168;-75
2023/01/30 09:45:33;;;;;;;4.33;3.13;;;;;;;3.80;100.00;-23922.38;5012480;28;20163;-74
2023/01/30 09:48:16;;;;;;;8.27;3.43;;;;;;;4.19;100.00;-23933.34;5019135;28;20183;-73
2023/01/30 09:51:02;;;;;;;5.90;2.37;;;;;;;3.94;100.00;-23926.38;5013727;28;20185;-75
2023/01/30 09:53:58;;;;;;;7.37;3.33;;;;;;;4.43;100.00;-23940.34;5013054;28;20164;-74
2023/01/30 09:56:24;;;;;;;8.07;3.67;;;;;;;4.28;100.00;-23935.91;5013110;28;20550;-74
2023/01/30 09:58:55;;;;;;;6.67;2.57;;;;;;;4.30;100.00;-23936.63;5012876;28;20203;-71
2023/01/30 10:01:41;;;;;;;5.13;2.97;;;;;;;3.95;100.00;-23926.66;5013025;28;20183;-71
2023/01/30 10:04:27;;;;;;;3.33;2.87;;;;;;;4.18;100.00;-23933.22;5012699;28;20186;-75
2023/01/30 10:07:03;;;;;;;5.60;3.20;;;;;;;3.74;100.00;-23920.81;5013217;28;20653;-73
2023/01/30 10:09:49;;;;;;;3.93;3.13;;;;;;;4.24;100.00;-23934.78;5013021;28;20168;-75
2023/01/30 10:12:33;;;;;;;6.33;3.87;;;;;;;4.44;100.00;-23940.47;5012132;28;20609;-75
2023/01/30 10:15:21;;;;;;;12.87;2.77;;;;;;;3.96;100.00;-23926.94;5013025;28;20258;-73
2023/01/30 10:17:49;;;;;;;3.27;2.70;;;;;;;4.23;100.00;-23934.50;5012423;28;20638;-72
2023/01/30 10:20:36;;;;;;;3.97;2.83;;;;;;;3.85;100.00;-23923.94;5012779;28;20199;-71
2023/01/30 10:23:32;;;;;;;3.37;2.47;;;;;;;4.44;100.00;-23940.63;5012628;28;20568;-74
2023/01/30 10:26:06;;;;;;;6.70;3.60;;;;;;;4.40;100.00;-23939.47;5013100;28;20187;-75
2023/01/30 10:28:37;;;;;;;3.13;2.50;;;;;;;4.19;100.00;-23933.50;5012780;28;20180;-74
2023/01/30 10:31:21;;;;;;;2.80;2.23;;;;;;;4.14;100.00;-23932.06;5011072;28;20259;-74
2023/01/30 10:34:33;;;;;;;4.53;2.57;;;;;;;4.38;100.00;-23938.91;5011984;28;20639;-72
2023/01/30 10:37:39;;;;;;;3.60;2.80;;;;;;;4.52;100.00;-23942.75;4990199;28;20212;-74
2023/01/30 10:40:19;;;;;;;4.07;2.53;;;;;;;4.28;100.00;-23935.91;4952663;28;20193;-75
2023/01/30 10:43:05;;;;;;;5.03;2.93;;;;;;;4.36;100.00;-23938.34;5009693;28;20192;-75
2023/01/30 10:45:43;;;;;;;5.90;2.80;;;;;;;3.90;100.00;-23925.22;5010916;28;20176;-74
2023/01/30 10:48:23;;;;;;;3.27;2.53;;;;;;;4.33;100.00;-23937.34;5011871;28;20581;-76
2023/01/30 10:50:52;;;;;;;9.83;4.10;;;;;;;4.27;100.00;-23935.78;5012444;28;20255;-73
2023/01/30 10:53:31;;;;;;;7.20;4.43;;;;;;;3.90;100.00;-23925.22;5012338;28;20181;-77
2023/01/30 10:56:12;;;;;;;4.90;3.10;;;;;;;4.37;100.00;-23938.47;5011939;28;20182;-77
2023/01/30 10:58:50;;;;;;;5.33;3.50;;;;;;;4.68;100.00;-23947.31;5012340;28;20203;-74
2023/01/30 11:01:30;;;;;;;4.07;2.87;;;;;;;4.80;100.00;-23950.56;5012801;28;20199;-76
2023/01/30 11:04:02;;;;;;;4.33;3.30;;;;;;;4.54;100.00;-23943.19;5011217;28;20198;-78
2023/01/30 11:06:29;;;;;;;4.80;3.40;;;;;;;4.55;100.00;-23943.59;5011328;28;20267;-75
2023/01/30 11:08:55;;;;;;;5.37;2.97;;;;;;;4.49;100.00;-23941.91;5012023;28;20172;-73
2023/01/30 11:11:40;;;;;;;7.43;3.27;;;;;;;4.40;100.00;-23939.47;5011706;28;20172;-73
2023/01/30 11:14:09;;;;;;;6.80;3.40;;;;;;;4.66;100.00;-23946.75;5011565;28;20188;-73
2023/01/30 11:16:55;;;;;;;4.60;3.17;;;;;;;4.98;100.00;-23955.56;5011957;28;20187;-76
2023/01/30 11:19:33;;;;;;;7.20;3.33;;;;;;;4.70;100.00;-23947.72;5010826;28;20263;-73
2023/01/30 11:22:02;;;;;;;4.50;3.07;;;;;;;4.75;100.00;-23949.16;5007244;28;20282;-74
2023/01/30 11:24:38;;;;;;;4.17;2.87;;;;;;;4.82;100.00;-23951.16;5010145;28;20655;-74
2023/01/30 11:27:17;;;;;;;7.17;4.13;;;;;;;4.62;100.00;-23945.47;5007629;28;20266;-74
2023/01/30 11:29:43;;;;;;;5.67;3.07;;;;;;;4.78;100.00;-23950.00;5008898;28;20729;-72
2023/01/30 11:32:18;;;;;;;11.57;4.47;;;;;;;4.75;100.00;-23949.31;5009604;28;20168;-73
2023/01/30 11:35:02;;;;;;;5.90;3.27;;;;;;;4.92;100.00;-23954.00;5008955;28;20184;-74
2023/01/30 11:37:37;;;;;;;6.37;3.53;;;;;;;4.85;100.00;-23952.16;5009505;28;20203;-74
2023/01/30 11:40:20;;;;;;;6.37;3.13;;;;;;;5.08;100.00;-23958.53;5015529;28;20646;-72
2023/01/30 11:42:49;;;;;;;5.30;2.93;;;;;;;5.00;100.00;-23956.25;5009274;28;20246;-74